createdAt,value
2023-02-11T00:02:05.312Z,40.58
2023-02-11T00:04:33.036Z,43.90
2023-02-11T00:07:07.266Z,38.35
2023-02-11T00:09:38.925Z,42.92
2023-02-11T00:12:12.916Z,44.35
2023-02-11T00:14:43.708Z,45.55
2023-02-11T00:17:11.404Z,39.58
2023-02-11T00:19:40.044Z,39.78
2023-02-11T00:22:07.724Z,36.13
2023-02-11T00:24:36.608Z,46.05
2023-02-11T00:27:04.358Z,41.30
2023-02-11T00:29:31.974Z,46.63
2023-02-11T00:32:14.517Z,40.53
2023-02-11T00:34:51.315Z,45.70
2023-02-11T00:37:23.604Z,42.08
2023-02-11T00:39:51.391Z,42.60
2023-02-11T00:42:21.215Z,39.80
2023-02-11T00:44:54.885Z,47.88
2023-02-11T00:47:22.749Z,42.25
2023-02-11T00:49:52.573Z,45.20
2023-02-11T00:52:20.484Z,45.72
2023-02-11T00:55:13.269Z,39.95
2023-02-11T00:57:43.222Z,49.80
2023-02-11T01:00:15.476Z,49.65
2023-02-11T01:02:43.148Z,35.17
2023-02-11T01:05:12.956Z,41.67
2023-02-11T01:07:45.307Z,49.70
2023-02-11T01:10:13.284Z,42.22
2023-02-11T01:12:41.419Z,43.80
2023-02-11T01:15:23.418Z,41.40
2023-02-11T01:17:51.228Z,40.30
2023-02-11T01:20:25.034Z,50.83
2023-02-11T01:22:52.724Z,58.50
2023-02-11T01:25:21.866Z,47.08
2023-02-11T01:27:49.529Z,45.63
2023-02-11T01:30:17.491Z,46.85
2023-02-11T01:32:46.867Z,40.22
2023-02-11T01:35:14.692Z,52.85
2023-02-11T01:37:44.525Z,45.25
2023-02-11T01:40:14.200Z,40.55
2023-02-11T01:42:45.385Z,47.67
2023-02-11T01:45:31.770Z,46.20
2023-02-11T01:48:02.497Z,44.22
2023-02-11T01:50:30.211Z,43.53
2023-02-11T01:53:17.896Z,52.85
2023-02-11T01:56:05.639Z,41.85
2023-02-11T01:58:33.917Z,42.17
2023-02-11T02:01:03.166Z,47.00
2023-02-11T02:11:19.407Z,58.60
2023-02-11T02:28:43.107Z,42.28
2023-02-11T02:32:25.196Z,42.05
2023-02-11T04:10:24.375Z,43.33
2023-02-11T04:17:56.613Z,48.63
2023-02-11T05:10:07.081Z,38.25
2023-02-11T05:18:30.129Z,47.83
2023-02-11T05:50:05.248Z,49.65
2023-02-11T06:15:16.552Z,53.00
2023-02-11T06:17:54.358Z,52.17
2023-02-11T06:25:01.323Z,46.30
2023-02-11T06:27:50.804Z,44.20
2023-02-11T06:30:18.390Z,48.00
2023-02-11T06:32:46.311Z,52.15
2023-02-11T06:35:14.563Z,49.30
2023-02-11T06:37:42.737Z,59.45
2023-02-11T06:40:10.878Z,55.00
2023-02-11T06:42:39.317Z,50.03
2023-02-11T06:45:09.097Z,45.45
2023-02-11T06:47:36.542Z,56.53
2023-02-11T06:50:04.132Z,55.67
2023-02-11T06:52:31.551Z,44.42
2023-02-11T06:54:59.072Z,62.97
2023-02-11T06:57:26.557Z,55.90
2023-02-11T06:59:56.348Z,55.45
2023-02-11T07:02:23.951Z,50.30
2023-02-11T07:04:51.418Z,55.72
2023-02-11T07:07:21.216Z,61.65
2023-02-11T07:09:48.724Z,52.50
2023-02-11T07:12:16.266Z,51.88
2023-02-11T07:14:43.778Z,51.35
2023-02-11T07:17:11.401Z,56.63
2023-02-11T07:19:38.914Z,49.42
2023-02-11T07:22:06.361Z,50.60
2023-02-11T07:24:33.847Z,42.15
2023-02-11T07:27:01.337Z,52.70
2023-02-11T07:29:31.008Z,46.95
2023-02-11T07:32:01.074Z,52.13
2023-02-11T07:34:29.208Z,60.83
2023-02-11T07:36:56.657Z,57.55
2023-02-11T07:39:27.615Z,51.60
2023-02-11T07:41:55.277Z,61.67
2023-02-11T07:44:23.024Z,58.47
2023-02-11T07:46:50.756Z,49.58
2023-02-11T07:49:18.311Z,50.38
2023-02-11T07:51:46.140Z,46.65
2023-02-11T07:54:15.010Z,50.47
2023-02-11T07:56:42.600Z,47.28
2023-02-11T07:59:12.675Z,50.90
2023-02-11T08:01:43.253Z,49.42
2023-02-11T08:04:12.627Z,62.97
2023-02-11T08:06:43.584Z,49.10
2023-02-11T08:09:13.959Z,43.83
2023-02-11T08:11:41.403Z,52.53
2023-02-11T08:14:12.107Z,49.17
2023-02-11T08:16:40.124Z,46.20
2023-02-11T08:19:15.151Z,40.47
2023-02-11T08:21:43.096Z,48.80
2023-02-11T08:24:10.803Z,40.92
2023-02-11T08:26:38.830Z,41.40
2023-02-11T08:29:09.263Z,46.00
2023-02-11T08:31:41.033Z,46.17
2023-02-11T08:34:15.838Z,34.38
2023-02-11T08:36:44.781Z,38.92
2023-02-11T08:39:22.863Z,46.88
2023-02-11T08:41:53.411Z,46.75
2023-02-11T08:44:22.127Z,43.17
2023-02-11T08:46:59.315Z,43.60
2023-02-11T08:49:30.839Z,39.50
2023-02-11T08:52:02.262Z,36.47
2023-02-11T08:54:29.870Z,43.30
2023-02-11T08:56:57.670Z,34.40
2023-02-11T08:59:25.290Z,43.13
2023-02-11T09:01:54.688Z,38.58
2023-02-11T09:04:25.747Z,39.90
2023-02-11T09:06:53.186Z,39.45
2023-02-11T09:09:21.090Z,30.95
2023-02-11T09:11:48.681Z,45.28
2023-02-11T09:14:18.474Z,37.75
2023-02-11T09:16:45.974Z,35.60
2023-02-11T09:19:13.503Z,34.90
2023-02-11T09:21:41.110Z,33.78
2023-02-11T09:24:08.658Z,33.28
2023-02-11T09:26:36.830Z,38.85
2023-02-11T09:29:04.975Z,28.88
2023-02-11T09:31:33.642Z,38.40
2023-02-11T09:34:02.557Z,32.22
2023-02-11T09:36:34.554Z,32.63
2023-02-11T09:39:02.838Z,27.48
2023-02-11T09:41:41.481Z,27.35
2023-02-11T09:44:11.100Z,34.72
2023-02-11T09:46:41.094Z,33.78
2023-02-11T09:49:08.641Z,39.58
2023-02-11T09:51:55.640Z,34.03
2023-02-11T09:54:32.316Z,32.13
2023-02-11T09:56:59.833Z,26.65
2023-02-11T09:59:27.395Z,27.98
2023-02-11T10:01:58.363Z,24.77
2023-02-11T10:04:28.990Z,31.45
2023-02-11T10:07:00.841Z,25.30
2023-02-11T10:09:37.861Z,23.17
2023-02-11T10:12:17.680Z,27.23
2023-02-11T10:14:48.229Z,25.33
2023-02-11T10:17:34.344Z,29.73
2023-02-11T10:20:01.850Z,25.73
2023-02-11T10:22:31.926Z,26.92
2023-02-11T10:25:00.475Z,24.00
2023-02-11T10:27:31.841Z,30.75
2023-02-11T10:30:19.162Z,21.88
2023-02-11T10:32:58.933Z,23.85
2023-02-11T10:35:27.272Z,26.65
2023-02-11T10:37:59.814Z,29.40
2023-02-11T10:40:30.907Z,20.85
2023-02-11T10:43:00.510Z,24.73
2023-02-11T10:45:29.383Z,21.75
2023-02-11T10:47:57.151Z,19.50
2023-02-11T10:50:24.693Z,29.35
2023-02-11T10:53:11.645Z,21.65
2023-02-11T10:55:39.118Z,22.00
2023-02-11T10:58:08.531Z,31.63
2023-02-11T11:00:38.889Z,26.63
2023-02-11T11:03:18.732Z,27.52
2023-02-11T11:05:51.212Z,21.33
2023-02-11T11:08:19.233Z,24.17
2023-02-11T11:11:03.789Z,20.95
2023-02-11T11:13:58.408Z,17.65
2023-02-11T11:16:36.115Z,18.23
2023-02-11T11:19:10.904Z,17.38
2023-02-11T11:21:48.580Z,22.20
2023-02-11T11:24:18.774Z,19.13
2023-02-11T11:26:48.608Z,20.92
2023-02-11T11:29:19.495Z,20.30
2023-02-11T11:31:54.567Z,19.98
2023-02-11T11:34:30.651Z,19.10
2023-02-11T11:36:58.884Z,14.30
2023-02-11T11:39:34.591Z,27.65
2023-02-11T11:42:05.199Z,19.50
2023-02-11T11:44:32.700Z,17.92
2023-02-11T11:47:18.661Z,20.30
2023-02-11T11:49:57.247Z,19.88
2023-02-11T11:52:34.592Z,28.65
2023-02-11T11:55:08.489Z,25.17
2023-02-11T11:57:38.086Z,17.13
2023-02-11T12:00:08.682Z,27.92
2023-02-11T12:02:47.178Z,23.85
2023-02-11T12:05:19.797Z,24.50
2023-02-11T12:07:56.488Z,17.60
2023-02-11T12:10:27.060Z,18.27
2023-02-11T12:13:03.756Z,18.00
2023-02-11T12:15:44.348Z,19.00
2023-02-11T12:18:15.019Z,22.00
2023-02-11T12:20:57.877Z,15.15
2023-02-11T12:23:41.546Z,23.45
2023-02-11T12:26:14.557Z,18.45
2023-02-11T12:29:00.773Z,16.63
2023-02-11T12:31:34.180Z,18.73
2023-02-11T12:34:10.707Z,18.50
2023-02-11T12:36:44.391Z,23.02
2023-02-11T12:39:33.978Z,16.52
2023-02-11T12:42:29.226Z,17.35
2023-02-11T12:45:14.285Z,23.73
2023-02-11T12:48:00.338Z,23.13
2023-02-11T12:50:35.692Z,21.08
2023-02-11T12:53:23.530Z,21.88
2023-02-11T12:55:54.804Z,25.58
2023-02-11T12:58:35.546Z,26.25
2023-02-11T13:01:23.018Z,19.45
2023-02-11T13:03:56.958Z,21.65
2023-02-11T13:06:28.555Z,24.45
2023-02-11T13:08:59.475Z,22.77
2023-02-11T13:11:33.582Z,15.77
2023-02-11T13:14:08.426Z,25.17
2023-02-11T13:16:47.513Z,16.95
2023-02-11T13:19:18.155Z,18.73
2023-02-11T13:22:01.570Z,17.73
2023-02-11T13:24:32.365Z,18.92
2023-02-11T13:27:09.060Z,21.52
2023-02-11T13:29:56.260Z,21.25
2023-02-11T13:32:23.713Z,17.73
2023-02-11T13:34:58.538Z,20.88
2023-02-11T13:37:27.486Z,30.50
2023-02-11T13:40:00.278Z,18.17
2023-02-11T13:42:28.568Z,21.27
2023-02-11T13:44:56.642Z,25.25
2023-02-11T13:47:39.318Z,21.98
2023-02-11T13:50:09.338Z,22.08
2023-02-11T13:52:40.262Z,17.88
2023-02-11T13:55:10.862Z,25.35
2023-02-11T13:57:39.901Z,18.42
2023-02-11T14:00:10.540Z,17.67
2023-02-11T14:02:57.135Z,17.15
2023-02-11T14:05:43.179Z,16.00
2023-02-11T14:08:29.256Z,14.00
2023-02-11T14:10:56.730Z,16.05
2023-02-11T14:13:25.105Z,19.58
2023-02-11T14:16:11.680Z,16.73
2023-02-11T14:18:42.992Z,16.95
2023-02-11T14:21:13.711Z,15.88
2023-02-11T14:23:41.699Z,25.38
2023-02-11T14:26:21.541Z,21.63
2023-02-11T14:28:50.877Z,23.55
2023-02-11T14:31:31.497Z,15.57
2023-02-11T14:34:08.192Z,21.20
2023-02-11T14:36:44.749Z,22.42
2023-02-11T14:39:30.697Z,20.63
2023-02-11T14:41:58.306Z,22.38
2023-02-11T14:44:32.091Z,16.67
2023-02-11T14:47:00.040Z,18.98
2023-02-11T14:49:35.984Z,24.65
2023-02-11T14:52:22.366Z,14.55
2023-02-11T14:54:50.953Z,20.98
2023-02-11T14:57:19.722Z,22.38
2023-02-11T15:00:13.674Z,15.57
2023-02-11T15:02:41.618Z,18.75
2023-02-11T15:05:26.046Z,22.13
2023-02-11T15:07:57.371Z,26.75
2023-02-11T15:10:37.037Z,23.77
2023-02-11T15:13:05.724Z,19.42
2023-02-11T15:15:35.825Z,22.00
2023-02-11T15:18:04.452Z,19.55
2023-02-11T15:20:33.323Z,24.48
2023-02-11T15:23:02.221Z,17.90
2023-02-11T15:25:31.780Z,19.33
2023-02-11T15:28:01.705Z,14.90
2023-02-11T15:30:30.993Z,20.20
2023-02-11T15:33:03.323Z,18.30
2023-02-11T15:35:32.657Z,15.25
2023-02-11T15:38:00.780Z,15.77
2023-02-11T15:40:30.063Z,25.88
2023-02-11T15:43:05.046Z,16.40
2023-02-11T15:45:43.506Z,27.67
2023-02-11T15:48:13.421Z,15.27
2023-02-11T15:50:41.867Z,17.42
2023-02-11T15:53:28.213Z,20.08
2023-02-11T15:56:15.952Z,20.75
2023-02-11T15:58:47.879Z,26.20
2023-02-11T16:01:17.132Z,25.55
2023-02-11T16:03:44.970Z,20.63
2023-02-11T16:06:16.502Z,22.50
2023-02-11T16:08:44.227Z,22.00
2023-02-11T16:11:25.891Z,27.50
2023-02-11T16:13:55.620Z,24.27
2023-02-11T16:16:28.073Z,20.00
2023-02-11T16:19:06.008Z,22.45
2023-02-11T16:21:39.304Z,24.98
2023-02-11T16:24:08.208Z,29.25
2023-02-11T16:26:39.309Z,18.48
2023-02-11T16:29:08.567Z,26.90
2023-02-11T16:31:37.755Z,19.52
2023-02-11T16:34:16.004Z,21.38
2023-02-11T16:36:43.885Z,24.50
2023-02-11T16:39:11.699Z,17.48
2023-02-11T16:41:39.470Z,28.10
2023-02-11T16:44:07.216Z,21.60
2023-02-11T16:46:37.549Z,24.90
2023-02-11T16:49:09.798Z,35.72
2023-02-11T16:51:39.907Z,28.83
2023-02-11T16:54:07.478Z,17.55
2023-02-11T16:56:35.012Z,16.65
2023-02-11T16:59:02.871Z,16.60
2023-02-11T17:01:30.662Z,21.48
2023-02-11T17:03:58.202Z,24.80
2023-02-11T17:06:26.160Z,25.05
2023-02-11T17:08:53.584Z,24.35
2023-02-11T17:11:21.029Z,23.45
2023-02-11T17:13:48.542Z,22.17
2023-02-11T17:16:20.443Z,21.38
2023-02-11T17:18:48.789Z,23.13
2023-02-11T17:21:16.785Z,22.40
2023-02-11T17:23:46.087Z,24.13
2023-02-11T17:26:13.615Z,19.88
2023-02-11T17:28:41.133Z,26.90
2023-02-11T17:31:09.514Z,25.00
2023-02-11T17:33:37.904Z,19.70
2023-02-11T17:36:07.108Z,18.15
2023-02-11T17:38:35.314Z,18.27
2023-02-11T17:41:03.478Z,32.38
2023-02-11T17:43:31.246Z,23.02
2023-02-11T17:45:58.866Z,22.90
2023-02-11T17:48:26.498Z,25.30
2023-02-11T17:50:57.656Z,26.27
2023-02-11T17:53:25.268Z,19.40
2023-02-11T17:55:53.050Z,29.65
2023-02-11T17:58:20.818Z,26.73
2023-02-11T18:00:48.342Z,25.92
2023-02-11T18:03:15.984Z,23.42
2023-02-11T18:05:43.493Z,29.20
2023-02-11T18:08:13.272Z,28.00
2023-02-11T18:10:43.204Z,23.92
2023-02-11T18:13:10.852Z,25.23
2023-02-11T18:15:38.400Z,36.25
2023-02-11T18:18:05.908Z,22.60
2023-02-11T18:20:33.348Z,23.90
2023-02-11T18:23:00.867Z,26.52
2023-02-11T18:25:29.907Z,23.83
2023-02-11T18:27:57.529Z,28.45
2023-02-11T18:30:28.168Z,27.95
2023-02-11T18:32:57.942Z,32.00
2023-02-11T18:35:25.504Z,34.22
2023-02-11T18:37:56.240Z,23.08
2023-02-11T18:40:28.240Z,22.05
2023-02-11T18:42:55.755Z,27.95
2023-02-11T18:45:24.031Z,25.77
2023-02-11T18:47:53.880Z,27.63
2023-02-11T18:50:22.202Z,27.92
2023-02-11T18:52:53.903Z,29.60
2023-02-11T18:55:27.368Z,40.83
2023-02-11T18:57:55.263Z,22.65
2023-02-11T19:00:23.116Z,29.95
2023-02-11T19:02:53.022Z,23.98
2023-02-11T19:05:21.609Z,21.63
2023-02-11T19:07:49.117Z,37.90
2023-02-11T19:10:16.757Z,35.28
2023-02-11T19:12:44.360Z,32.72
2023-02-11T19:15:13.988Z,33.63
2023-02-11T19:17:41.652Z,29.10
2023-02-11T19:20:09.541Z,26.63
2023-02-11T19:22:37.817Z,32.88
2023-02-11T19:25:05.662Z,31.88
2023-02-11T19:27:33.327Z,21.58
2023-02-11T19:30:00.930Z,27.10
2023-02-11T19:32:28.702Z,25.52
2023-02-11T19:34:57.526Z,32.47
2023-02-11T19:37:27.328Z,24.77
2023-02-11T19:39:54.896Z,30.70
2023-02-11T19:42:22.490Z,19.27
2023-02-11T19:44:52.351Z,29.92
2023-02-11T19:47:20.093Z,31.98
2023-02-11T19:49:47.653Z,36.75
2023-02-11T19:52:15.617Z,30.15
2023-02-11T19:54:43.226Z,29.42
2023-02-11T19:57:10.898Z,28.63
2023-02-11T19:59:45.758Z,28.65
2023-02-11T20:07:09.920Z,37.20
2023-02-11T20:09:22.241Z,34.58
2023-02-11T20:12:15.351Z,26.13
2023-02-11T20:18:16.443Z,34.58
2023-02-11T20:21:29.994Z,31.52
2023-02-11T20:24:25.783Z,43.50
2023-02-11T20:31:10.034Z,24.85
2023-02-11T20:34:26.530Z,29.75
2023-02-11T20:37:10.612Z,40.53
2023-02-11T20:40:21.858Z,27.77
2023-02-11T20:43:42.282Z,27.77
2023-02-11T20:46:53.065Z,28.55
2023-02-11T20:50:19.574Z,29.10
2023-02-11T20:53:38.565Z,25.20
2023-02-11T20:56:10.108Z,23.70
2023-02-11T21:07:44.040Z,30.35
2023-02-11T21:13:46.764Z,24.13
2023-02-11T21:19:21.326Z,25.35
2023-02-11T21:26:52.075Z,27.48
2023-02-11T21:28:55.930Z,32.97
2023-02-11T21:31:52.784Z,29.27
2023-02-11T21:37:56.391Z,38.45
2023-02-11T21:58:23.160Z,32.13
2023-02-11T22:21:59.436Z,25.08
2023-02-11T22:29:49.889Z,22.95
2023-02-11T23:03:07.681Z,43.83
2023-02-11T23:07:18.046Z,36.10
